sensor_id;sensor_type;location;lat;lon;timestamp;P1;durP1;ratioP1;P2;durP2;ratioP2
10343;SDS011;5217;43.960;10.954;2023-04-29T00:00:12;4.10;;;3.33;;
10343;SDS011;5217;43.960;10.954;2023-04-29T00:02:42;4.30;;;3.90;;
10343;SDS011;5217;43.960;10.954;2023-04-29T00:05:10;6.30;;;4.23;;
10343;SDS011;5217;43.960;10.954;2023-04-29T00:07:39;5.70;;;4.57;;
10343;SDS011;5217;43.960;10.954;2023-04-29T00:10:08;7.15;;;5.00;;
10343;SDS011;5217;43.960;10.954;2023-04-29T00:12:40;8.32;;;5.25;;
10343;SDS011;5217;43.960;10.954;2023-04-29T00:15:08;7.10;;;5.13;;
10343;SDS011;5217;43.960;10.954;2023-04-29T00:17:39;6.75;;;5.10;;
10343;SDS011;5217;43.960;10.954;2023-04-29T00:20:08;6.60;;;4.47;;
10343;SDS011;5217;43.960;10.954;2023-04-29T00:22:37;5.78;;;4.47;;
10343;SDS011;5217;43.960;10.954;2023-04-29T00:25:06;6.47;;;4.30;;
10343;SDS011;5217;43.960;10.954;2023-04-29T00:27:36;4.32;;;3.67;;
10343;SDS011;5217;43.960;10.954;2023-04-29T00:30:05;5.88;;;4.20;;
10343;SDS011;5217;43.960;10.954;2023-04-29T00:32:34;5.10;;;4.03;;
10343;SDS011;5217;43.960;10.954;2023-04-29T00:35:05;4.10;;;3.70;;
10343;SDS011;5217;43.960;10.954;2023-04-29T00:37:33;4.50;;;3.37;;
10343;SDS011;5217;43.960;10.954;2023-04-29T00:40:02;5.13;;;4.00;;
10343;SDS011;5217;43.960;10.954;2023-04-29T00:42:31;6.13;;;3.70;;
10343;SDS011;5217;43.960;10.954;2023-04-29T00:45:00;5.00;;;3.70;;
10343;SDS011;5217;43.960;10.954;2023-04-29T00:47:29;5.57;;;3.63;;
10343;SDS011;5217;43.960;10.954;2023-04-29T00:49:57;4.28;;;3.58;;
10343;SDS011;5217;43.960;10.954;2023-04-29T00:52:27;4.07;;;3.60;;
10343;SDS011;5217;43.960;10.954;2023-04-29T00:54:58;7.10;;;4.37;;
10343;SDS011;5217;43.960;10.954;2023-04-29T00:57:26;6.43;;;4.37;;
10343;SDS011;5217;43.960;10.954;2023-04-29T00:59:55;5.47;;;3.97;;
10343;SDS011;5217;43.960;10.954;2023-04-29T01:02:24;5.10;;;3.60;;
10343;SDS011;5217;43.960;10.954;2023-04-29T01:04:54;5.87;;;3.97;;
10343;SDS011;5217;43.960;10.954;2023-04-29T01:07:23;4.23;;;3.70;;
10343;SDS011;5217;43.960;10.954;2023-04-29T01:10:00;5.33;;;4.07;;
10343;SDS011;5217;43.960;10.954;2023-04-29T01:12:37;4.43;;;3.80;;
10343;SDS011;5217;43.960;10.954;2023-04-29T01:15:09;5.40;;;3.80;;
10343;SDS011;5217;43.960;10.954;2023-04-29T01:17:46;5.23;;;3.87;;
10343;SDS011;5217;43.960;10.954;2023-04-29T01:20:18;5.03;;;3.93;;
10343;SDS011;5217;43.960;10.954;2023-04-29T01:22:50;4.22;;;3.45;;
10343;SDS011;5217;43.960;10.954;2023-04-29T01:25:20;5.07;;;3.73;;
10343;SDS011;5217;43.960;10.954;2023-04-29T01:27:51;5.13;;;3.80;;
10343;SDS011;5217;43.960;10.954;2023-04-29T01:30:33;5.47;;;3.47;;
10343;SDS011;5217;43.960;10.954;2023-04-29T01:33:10;3.97;;;3.40;;
10343;SDS011;5217;43.960;10.954;2023-04-29T01:35:44;3.83;;;3.43;;
10343;SDS011;5217;43.960;10.954;2023-04-29T01:38:29;3.90;;;3.13;;
10343;SDS011;5217;43.960;10.954;2023-04-29T01:41:09;4.63;;;3.47;;
10343;SDS011;5217;43.960;10.954;2023-04-29T01:43:39;4.17;;;3.20;;
10343;SDS011;5217;43.960;10.954;2023-04-29T01:46:09;4.03;;;3.17;;
10343;SDS011;5217;43.960;10.954;2023-04-29T01:48:40;4.27;;;3.40;;
10343;SDS011;5217;43.960;10.954;2023-04-29T01:51:09;4.07;;;3.17;;
10343;SDS011;5217;43.960;10.954;2023-04-29T01:53:37;3.90;;;3.43;;
10343;SDS011;5217;43.960;10.954;2023-04-29T01:56:08;4.70;;;3.40;;
10343;SDS011;5217;43.960;10.954;2023-04-29T01:58:36;5.00;;;3.57;;
10343;SDS011;5217;43.960;10.954;2023-04-29T02:01:05;4.87;;;3.43;;
10343;SDS011;5217;43.960;10.954;2023-04-29T02:03:35;5.27;;;3.50;;
10343;SDS011;5217;43.960;10.954;2023-04-29T02:06:04;4.20;;;3.27;;
10343;SDS011;5217;43.960;10.954;2023-04-29T02:08:33;5.30;;;3.43;;
10343;SDS011;5217;43.960;10.954;2023-04-29T02:11:01;4.37;;;3.50;;
10343;SDS011;5217;43.960;10.954;2023-04-29T02:13:32;6.03;;;3.57;;
10343;SDS011;5217;43.960;10.954;2023-04-29T02:16:06;4.17;;;3.40;;
10343;SDS011;5217;43.960;10.954;2023-04-29T02:18:35;4.73;;;3.63;;
10343;SDS011;5217;43.960;10.954;2023-04-29T02:21:04;4.87;;;3.60;;
10343;SDS011;5217;43.960;10.954;2023-04-29T02:23:33;4.53;;;3.30;;
10343;SDS011;5217;43.960;10.954;2023-04-29T02:26:01;3.77;;;3.30;;
10343;SDS011;5217;43.960;10.954;2023-04-29T02:28:33;5.03;;;3.83;;
10343;SDS011;5217;43.960;10.954;2023-04-29T02:31:01;3.67;;;3.30;;
10343;SDS011;5217;43.960;10.954;2023-04-29T02:33:29;4.20;;;3.30;;
10343;SDS011;5217;43.960;10.954;2023-04-29T02:35:58;4.80;;;3.57;;
10343;SDS011;5217;43.960;10.954;2023-04-29T02:38:26;3.57;;;3.13;;
10343;SDS011;5217;43.960;10.954;2023-04-29T02:40:55;6.17;;;3.33;;
10343;SDS011;5217;43.960;10.954;2023-04-29T02:43:23;5.97;;;3.77;;
10343;SDS011;5217;43.960;10.954;2023-04-29T02:45:53;4.07;;;3.43;;
10343;SDS011;5217;43.960;10.954;2023-04-29T02:48:21;4.00;;;3.60;;
10343;SDS011;5217;43.960;10.954;2023-04-29T02:50:50;3.83;;;3.30;;
10343;SDS011;5217;43.960;10.954;2023-04-29T02:53:18;4.47;;;3.40;;
10343;SDS011;5217;43.960;10.954;2023-04-29T02:55:47;4.37;;;3.13;;
10343;SDS011;5217;43.960;10.954;2023-04-29T02:58:15;5.30;;;3.30;;
10343;SDS011;5217;43.960;10.954;2023-04-29T03:00:44;4.20;;;3.40;;
10343;SDS011;5217;43.960;10.954;2023-04-29T03:03:13;4.57;;;3.30;;
10343;SDS011;5217;43.960;10.954;2023-04-29T03:05:42;4.20;;;3.23;;
10343;SDS011;5217;43.960;10.954;2023-04-29T03:08:11;4.17;;;3.50;;
10343;SDS011;5217;43.960;10.954;2023-04-29T03:10:39;5.63;;;3.50;;
10343;SDS011;5217;43.960;10.954;2023-04-29T03:13:08;4.70;;;3.43;;
10343;SDS011;5217;43.960;10.954;2023-04-29T03:15:36;4.60;;;3.53;;
10343;SDS011;5217;43.960;10.954;2023-04-29T03:18:05;5.47;;;3.63;;
10343;SDS011;5217;43.960;10.954;2023-04-29T03:20:35;5.00;;;3.60;;
10343;SDS011;5217;43.960;10.954;2023-04-29T03:23:03;7.13;;;3.47;;
10343;SDS011;5217;43.960;10.954;2023-04-29T03:25:32;3.50;;;2.97;;
10343;SDS011;5217;43.960;10.954;2023-04-29T03:28:00;4.47;;;3.37;;
10343;SDS011;5217;43.960;10.954;2023-04-29T03:30:29;5.13;;;3.23;;
10343;SDS011;5217;43.960;10.954;2023-04-29T03:32:58;5.67;;;3.03;;
10343;SDS011;5217;43.960;10.954;2023-04-29T03:35:26;5.43;;;3.10;;
10343;SDS011;5217;43.960;10.954;2023-04-29T03:37:56;7.07;;;2.97;;
10343;SDS011;5217;43.960;10.954;2023-04-29T03:40:25;6.18;;;2.67;;
10343;SDS011;5217;43.960;10.954;2023-04-29T03:42:53;5.10;;;2.43;;
10343;SDS011;5217;43.960;10.954;2023-04-29T03:45:21;5.40;;;2.83;;
10343;SDS011;5217;43.960;10.954;2023-04-29T03:47:50;4.67;;;2.40;;
10343;SDS011;5217;43.960;10.954;2023-04-29T03:50:20;3.77;;;2.43;;
10343;SDS011;5217;43.960;10.954;2023-04-29T03:52:49;5.63;;;2.70;;
10343;SDS011;5217;43.960;10.954;2023-04-29T03:55:19;4.87;;;2.50;;
10343;SDS011;5217;43.960;10.954;2023-04-29T03:57:48;5.23;;;2.60;;
10343;SDS011;5217;43.960;10.954;2023-04-29T04:00:16;3.93;;;2.33;;
10343;SDS011;5217;43.960;10.954;2023-04-29T04:02:45;3.93;;;2.03;;
10343;SDS011;5217;43.960;10.954;2023-04-29T04:05:14;5.43;;;2.30;;
10343;SDS011;5217;43.960;10.954;2023-04-29T04:07:44;5.97;;;2.53;;
10343;SDS011;5217;43.960;10.954;2023-04-29T04:10:13;3.90;;;2.17;;
10343;SDS011;5217;43.960;10.954;2023-04-29T04:12:43;4.97;;;2.23;;
10343;SDS011;5217;43.960;10.954;2023-04-29T04:15:12;5.10;;;2.30;;
10343;SDS011;5217;43.960;10.954;2023-04-29T04:17:42;2.70;;;1.83;;
10343;SDS011;5217;43.960;10.954;2023-04-29T04:20:11;2.77;;;1.90;;
10343;SDS011;5217;43.960;10.954;2023-04-29T04:22:39;3.37;;;2.10;;
10343;SDS011;5217;43.960;10.954;2023-04-29T04:25:08;3.67;;;2.00;;
10343;SDS011;5217;43.960;10.954;2023-04-29T04:27:37;4.27;;;2.07;;
10343;SDS011;5217;43.960;10.954;2023-04-29T04:30:08;3.00;;;2.07;;
10343;SDS011;5217;43.960;10.954;2023-04-29T04:32:37;4.53;;;2.50;;
10343;SDS011;5217;43.960;10.954;2023-04-29T04:35:06;3.47;;;2.30;;
10343;SDS011;5217;43.960;10.954;2023-04-29T04:37:35;3.30;;;2.30;;
10343;SDS011;5217;43.960;10.954;2023-04-29T04:40:04;3.77;;;2.20;;
10343;SDS011;5217;43.960;10.954;2023-04-29T04:42:33;2.87;;;2.17;;
10343;SDS011;5217;43.960;10.954;2023-04-29T04:45:02;4.30;;;2.30;;
10343;SDS011;5217;43.960;10.954;2023-04-29T04:47:32;3.67;;;2.30;;
10343;SDS011;5217;43.960;10.954;2023-04-29T04:50:02;2.47;;;2.00;;
10343;SDS011;5217;43.960;10.954;2023-04-29T04:52:31;5.53;;;2.40;;
10343;SDS011;5217;43.960;10.954;2023-04-29T04:54:59;3.43;;;2.00;;
10343;SDS011;5217;43.960;10.954;2023-04-29T04:57:28;2.67;;;2.07;;
10343;SDS011;5217;43.960;10.954;2023-04-29T04:59:56;3.30;;;2.20;;
10343;SDS011;5217;43.960;10.954;2023-04-29T05:02:25;3.97;;;2.20;;
10343;SDS011;5217;43.960;10.954;2023-04-29T05:04:55;4.37;;;2.37;;
10343;SDS011;5217;43.960;10.954;2023-04-29T05:07:23;4.37;;;2.10;;
10343;SDS011;5217;43.960;10.954;2023-04-29T05:09:51;4.80;;;2.53;;
10343;SDS011;5217;43.960;10.954;2023-04-29T05:12:20;3.10;;;2.13;;
10343;SDS011;5217;43.960;10.954;2023-04-29T05:14:51;2.70;;;2.10;;
10343;SDS011;5217;43.960;10.954;2023-04-29T05:17:20;3.47;;;2.30;;
10343;SDS011;5217;43.960;10.954;2023-04-29T05:19:48;3.17;;;1.90;;
10343;SDS011;5217;43.960;10.954;2023-04-29T05:22:18;4.87;;;2.30;;
10343;SDS011;5217;43.960;10.954;2023-04-29T05:24:47;5.93;;;2.70;;
10343;SDS011;5217;43.960;10.954;2023-04-29T05:27:18;5.27;;;2.30;;
10343;SDS011;5217;43.960;10.954;2023-04-29T05:29:49;3.70;;;2.33;;
10343;SDS011;5217;43.960;10.954;2023-04-29T05:32:18;5.20;;;2.60;;
10343;SDS011;5217;43.960;10.954;2023-04-29T05:34:47;2.63;;;2.27;;
10343;SDS011;5217;43.960;10.954;2023-04-29T05:37:16;3.10;;;2.27;;
10343;SDS011;5217;43.960;10.954;2023-04-29T05:39:46;4.07;;;2.33;;
10343;SDS011;5217;43.960;10.954;2023-04-29T05:42:14;5.37;;;2.47;;
10343;SDS011;5217;43.960;10.954;2023-04-29T05:44:42;4.13;;;2.50;;
10343;SDS011;5217;43.960;10.954;2023-04-29T05:47:11;2.70;;;2.10;;
10343;SDS011;5217;43.960;10.954;2023-04-29T05:49:39;4.77;;;2.43;;
10343;SDS011;5217;43.960;10.954;2023-04-29T05:52:08;4.50;;;2.60;;
10343;SDS011;5217;43.960;10.954;2023-04-29T05:54:38;4.53;;;2.57;;
10343;SDS011;5217;43.960;10.954;2023-04-29T05:57:07;5.67;;;2.90;;
10343;SDS011;5217;43.960;10.954;2023-04-29T05:59:35;5.00;;;3.13;;
10343;SDS011;5217;43.960;10.954;2023-04-29T06:02:04;5.37;;;3.80;;
10343;SDS011;5217;43.960;10.954;2023-04-29T06:04:33;7.73;;;4.70;;
10343;SDS011;5217;43.960;10.954;2023-04-29T06:07:02;6.10;;;4.70;;
10343;SDS011;5217;43.960;10.954;2023-04-29T06:09:30;6.43;;;4.47;;
10343;SDS011;5217;43.960;10.954;2023-04-29T06:12:00;6.43;;;4.63;;
10343;SDS011;5217;43.960;10.954;2023-04-29T06:14:28;7.30;;;4.67;;
10343;SDS011;5217;43.960;10.954;2023-04-29T06:16:57;6.50;;;4.60;;
10343;SDS011;5217;43.960;10.954;2023-04-29T06:19:25;6.27;;;4.17;;
10343;SDS011;5217;43.960;10.954;2023-04-29T06:21:54;4.37;;;3.63;;
10343;SDS011;5217;43.960;10.954;2023-04-29T06:24:22;7.17;;;3.87;;
10343;SDS011;5217;43.960;10.954;2023-04-29T06:26:51;5.10;;;3.70;;
10343;SDS011;5217;43.960;10.954;2023-04-29T06:29:21;6.03;;;3.93;;
10343;SDS011;5217;43.960;10.954;2023-04-29T06:31:49;4.40;;;3.50;;
10343;SDS011;5217;43.960;10.954;2023-04-29T06:34:18;5.73;;;3.70;;
10343;SDS011;5217;43.960;10.954;2023-04-29T06:36:47;6.50;;;3.60;;
10343;SDS011;5217;43.960;10.954;2023-04-29T06:39:15;6.93;;;3.60;;
10343;SDS011;5217;43.960;10.954;2023-04-29T06:41:44;6.47;;;3.53;;
10343;SDS011;5217;43.960;10.954;2023-04-29T06:44:13;6.00;;;3.38;;
10343;SDS011;5217;43.960;10.954;2023-04-29T06:46:43;4.13;;;3.07;;
10343;SDS011;5217;43.960;10.954;2023-04-29T06:49:13;4.73;;;2.90;;
10343;SDS011;5217;43.960;10.954;2023-04-29T06:51:41;4.30;;;2.80;;
10343;SDS011;5217;43.960;10.954;2023-04-29T06:54:10;5.60;;;3.27;;
10343;SDS011;5217;43.960;10.954;2023-04-29T06:56:39;5.40;;;3.30;;
10343;SDS011;5217;43.960;10.954;2023-04-29T06:59:08;7.83;;;5.23;;
10343;SDS011;5217;43.960;10.954;2023-04-29T07:01:38;10.17;;;6.03;;
10343;SDS011;5217;43.960;10.954;2023-04-29T07:04:11;8.20;;;5.33;;
10343;SDS011;5217;43.960;10.954;2023-04-29T07:06:40;7.07;;;5.03;;
10343;SDS011;5217;43.960;10.954;2023-04-29T07:09:12;7.13;;;5.00;;
10343;SDS011;5217;43.960;10.954;2023-04-29T07:11:41;7.23;;;4.77;;
10343;SDS011;5217;43.960;10.954;2023-04-29T07:14:10;6.03;;;4.63;;
10343;SDS011;5217;43.960;10.954;2023-04-29T07:16:38;6.20;;;4.53;;
10343;SDS011;5217;43.960;10.954;2023-04-29T07:19:07;6.33;;;4.77;;
10343;SDS011;5217;43.960;10.954;2023-04-29T07:21:37;5.87;;;4.40;;
10343;SDS011;5217;43.960;10.954;2023-04-29T07:24:05;6.25;;;4.32;;
10343;SDS011;5217;43.960;10.954;2023-04-29T07:26:33;6.13;;;4.30;;
10343;SDS011;5217;43.960;10.954;2023-04-29T07:29:02;4.28;;;3.83;;
10343;SDS011;5217;43.960;10.954;2023-04-29T07:31:30;4.68;;;3.70;;
10343;SDS011;5217;43.960;10.954;2023-04-29T07:34:02;5.07;;;3.73;;
10343;SDS011;5217;43.960;10.954;2023-04-29T07:36:31;3.67;;;3.22;;
10343;SDS011;5217;43.960;10.954;2023-04-29T07:39:02;5.00;;;3.63;;
10343;SDS011;5217;43.960;10.954;2023-04-29T07:41:31;5.20;;;3.67;;
10343;SDS011;5217;43.960;10.954;2023-04-29T07:43:59;5.27;;;3.60;;
10343;SDS011;5217;43.960;10.954;2023-04-29T07:46:28;4.97;;;3.40;;
10343;SDS011;5217;43.960;10.954;2023-04-29T07:48:57;4.82;;;3.80;;
10343;SDS011;5217;43.960;10.954;2023-04-29T07:51:26;6.47;;;4.07;;
10343;SDS011;5217;43.960;10.954;2023-04-29T07:53:55;6.43;;;4.10;;
10343;SDS011;5217;43.960;10.954;2023-04-29T07:56:25;9.90;;;5.57;;
10343;SDS011;5217;43.960;10.954;2023-04-29T07:58:54;6.85;;;4.60;;
10343;SDS011;5217;43.960;10.954;2023-04-29T08:01:24;8.23;;;5.00;;
10343;SDS011;5217;43.960;10.954;2023-04-29T08:03:52;7.07;;;4.40;;
10343;SDS011;5217;43.960;10.954;2023-04-29T08:06:22;6.90;;;4.30;;
10343;SDS011;5217;43.960;10.954;2023-04-29T08:08:51;7.15;;;4.25;;
10343;SDS011;5217;43.960;10.954;2023-04-29T08:11:22;5.72;;;3.97;;
10343;SDS011;5217;43.960;10.954;2023-04-29T08:13:54;5.60;;;3.92;;
10343;SDS011;5217;43.960;10.954;2023-04-29T08:16:25;5.13;;;3.90;;
10343;SDS011;5217;43.960;10.954;2023-04-29T08:18:54;4.80;;;3.83;;
10343;SDS011;5217;43.960;10.954;2023-04-29T08:21:29;4.68;;;3.88;;
10343;SDS011;5217;43.960;10.954;2023-04-29T08:24:00;6.60;;;4.60;;
10343;SDS011;5217;43.960;10.954;2023-04-29T08:26:29;6.40;;;4.55;;
10343;SDS011;5217;43.960;10.954;2023-04-29T08:29:03;5.93;;;3.88;;
10343;SDS011;5217;43.960;10.954;2023-04-29T08:31:32;6.75;;;4.18;;
10343;SDS011;5217;43.960;10.954;2023-04-29T08:34:02;6.18;;;4.28;;
10343;SDS011;5217;43.960;10.954;2023-04-29T08:36:31;5.30;;;4.35;;
10343;SDS011;5217;43.960;10.954;2023-04-29T08:39:03;5.95;;;4.25;;
10343;SDS011;5217;43.960;10.954;2023-04-29T08:41:32;5.25;;;3.70;;
10343;SDS011;5217;43.960;10.954;2023-04-29T08:44:05;6.60;;;4.50;;
10343;SDS011;5217;43.960;10.954;2023-04-29T08:46:35;6.30;;;4.15;;
10343;SDS011;5217;43.960;10.954;2023-04-29T08:49:04;6.22;;;4.47;;
10343;SDS011;5217;43.960;10.954;2023-04-29T08:51:34;5.50;;;4.25;;
10343;SDS011;5217;43.960;10.954;2023-04-29T08:54:03;6.07;;;4.20;;
10343;SDS011;5217;43.960;10.954;2023-04-29T08:56:32;5.43;;;4.25;;
10343;SDS011;5217;43.960;10.954;2023-04-29T08:59:01;6.35;;;3.97;;
10343;SDS011;5217;43.960;10.954;2023-04-29T09:01:36;5.03;;;4.03;;
10343;SDS011;5217;43.960;10.954;2023-04-29T09:04:08;5.30;;;3.97;;
10343;SDS011;5217;43.960;10.954;2023-04-29T09:06:48;5.70;;;3.97;;
10343;SDS011;5217;43.960;10.954;2023-04-29T09:09:18;4.78;;;4.22;;
10343;SDS011;5217;43.960;10.954;2023-04-29T09:11:48;5.97;;;4.50;;
10343;SDS011;5217;43.960;10.954;2023-04-29T09:14:18;5.88;;;4.50;;
10343;SDS011;5217;43.960;10.954;2023-04-29T09:16:49;5.90;;;4.68;;
10343;SDS011;5217;43.960;10.954;2023-04-29T09:19:28;6.32;;;4.68;;
10343;SDS011;5217;43.960;10.954;2023-04-29T09:21:57;5.68;;;4.80;;
10343;SDS011;5217;43.960;10.954;2023-04-29T09:24:27;5.85;;;4.55;;
10343;SDS011;5217;43.960;10.954;2023-04-29T09:26:56;6.03;;;4.53;;
10343;SDS011;5217;43.960;10.954;2023-04-29T09:29:27;6.82;;;4.88;;
10343;SDS011;5217;43.960;10.954;2023-04-29T09:31:56;7.22;;;4.75;;
10343;SDS011;5217;43.960;10.954;2023-04-29T09:34:31;7.55;;;5.45;;
10343;SDS011;5217;43.960;10.954;2023-04-29T09:37:01;8.43;;;5.05;;
10343;SDS011;5217;43.960;10.954;2023-04-29T09:39:37;6.78;;;4.90;;
10343;SDS011;5217;43.960;10.954;2023-04-29T09:42:06;6.97;;;5.00;;
10343;SDS011;5217;43.960;10.954;2023-04-29T09:44:40;7.05;;;4.40;;
10343;SDS011;5217;43.960;10.954;2023-04-29T09:47:09;6.75;;;4.63;;
10343;SDS011;5217;43.960;10.954;2023-04-29T09:49:39;5.45;;;4.15;;
10343;SDS011;5217;43.960;10.954;2023-04-29T09:52:08;7.10;;;4.38;;
10343;SDS011;5217;43.960;10.954;2023-04-29T09:54:38;6.65;;;4.53;;
10343;SDS011;5217;43.960;10.954;2023-04-29T09:57:08;6.68;;;4.15;;
10343;SDS011;5217;43.960;10.954;2023-04-29T09:59:39;6.22;;;4.38;;
10343;SDS011;5217;43.960;10.954;2023-04-29T10:02:10;6.22;;;4.93;;
10343;SDS011;5217;43.960;10.954;2023-04-29T10:04:43;6.32;;;4.55;;
10343;SDS011;5217;43.960;10.954;2023-04-29T10:07:13;7.80;;;5.10;;
10343;SDS011;5217;43.960;10.954;2023-04-29T10:09:43;7.10;;;4.85;;
10343;SDS011;5217;43.960;10.954;2023-04-29T10:12:14;8.35;;;4.57;;
10343;SDS011;5217;43.960;10.954;2023-04-29T10:14:46;7.45;;;5.88;;
10343;SDS011;5217;43.960;10.954;2023-04-29T10:17:23;9.55;;;5.82;;
10343;SDS011;5217;43.960;10.954;2023-04-29T10:19:57;7.20;;;5.35;;
10343;SDS011;5217;43.960;10.954;2023-04-29T10:22:32;7.25;;;5.07;;
10343;SDS011;5217;43.960;10.954;2023-04-29T10:25:03;8.20;;;4.97;;
10343;SDS011;5217;43.960;10.954;2023-04-29T10:27:34;5.78;;;5.25;;
10343;SDS011;5217;43.960;10.954;2023-04-29T10:30:06;11.88;;;6.15;;
10343;SDS011;5217;43.960;10.954;2023-04-29T10:32:40;7.35;;;5.63;;
10343;SDS011;5217;43.960;10.954;2023-04-29T10:35:18;6.97;;;5.05;;
10343;SDS011;5217;43.960;10.954;2023-04-29T10:37:49;6.10;;;4.90;;
10343;SDS011;5217;43.960;10.954;2023-04-29T10:40:21;7.45;;;5.05;;
10343;SDS011;5217;43.960;10.954;2023-04-29T10:42:55;8.68;;;5.07;;
10343;SDS011;5217;43.960;10.954;2023-04-29T10:45:26;7.10;;;5.20;;
10343;SDS011;5217;43.960;10.954;2023-04-29T10:48:13;9.55;;;6.10;;
10343;SDS011;5217;43.960;10.954;2023-04-29T10:51:02;10.27;;;7.03;;
10343;SDS011;5217;43.960;10.954;2023-04-29T10:53:31;11.48;;;7.78;;
10343;SDS011;5217;43.960;10.954;2023-04-29T10:56:04;10.32;;;7.15;;
10343;SDS011;5217;43.960;10.954;2023-04-29T10:58:37;10.40;;;8.20;;
10343;SDS011;5217;43.960;10.954;2023-04-29T11:01:10;9.75;;;7.70;;
10343;SDS011;5217;43.960;10.954;2023-04-29T11:03:47;10.25;;;7.28;;
10343;SDS011;5217;43.960;10.954;2023-04-29T11:06:21;9.40;;;6.80;;
10343;SDS011;5217;43.960;10.954;2023-04-29T11:09:01;11.40;;;6.97;;
10343;SDS011;5217;43.960;10.954;2023-04-29T11:11:44;7.63;;;5.75;;
10343;SDS011;5217;43.960;10.954;2023-04-29T11:14:28;8.27;;;5.43;;
10343;SDS011;5217;43.960;10.954;2023-04-29T11:17:00;7.65;;;5.82;;
10343;SDS011;5217;43.960;10.954;2023-04-29T11:19:31;7.32;;;4.80;;
10343;SDS011;5217;43.960;10.954;2023-04-29T11:22:10;6.63;;;4.70;;
10343;SDS011;5217;43.960;10.954;2023-04-29T11:24:47;7.38;;;4.95;;
10343;SDS011;5217;43.960;10.954;2023-04-29T11:27:18;5.25;;;3.67;;
10343;SDS011;5217;43.960;10.954;2023-04-29T11:29:54;5.53;;;4.00;;
10343;SDS011;5217;43.960;10.954;2023-04-29T11:32:27;6.55;;;4.22;;
10343;SDS011;5217;43.960;10.954;2023-04-29T11:35:06;7.00;;;4.70;;
10343;SDS011;5217;43.960;10.954;2023-04-29T11:37:35;7.60;;;4.45;;
10343;SDS011;5217;43.960;10.954;2023-04-29T11:40:04;7.10;;;4.45;;
10343;SDS011;5217;43.960;10.954;2023-04-29T11:42:34;6.88;;;4.40;;
10343;SDS011;5217;43.960;10.954;2023-04-29T11:45:03;4.85;;;3.88;;
10343;SDS011;5217;43.960;10.954;2023-04-29T11:47:36;8.63;;;4.30;;
10343;SDS011;5217;43.960;10.954;2023-04-29T11:50:09;5.80;;;3.78;;
10343;SDS011;5217;43.960;10.954;2023-04-29T11:52:38;5.43;;;3.88;;
10343;SDS011;5217;43.960;10.954;2023-04-29T11:55:07;9.98;;;4.10;;
10343;SDS011;5217;43.960;10.954;2023-04-29T11:57:37;6.47;;;3.80;;
10343;SDS011;5217;43.960;10.954;2023-04-29T12:00:07;4.95;;;3.80;;
10343;SDS011;5217;43.960;10.954;2023-04-29T12:02:38;4.68;;;3.58;;
10343;SDS011;5217;43.960;10.954;2023-04-29T12:05:11;6.20;;;3.33;;
10343;SDS011;5217;43.960;10.954;2023-04-29T12:07:41;6.85;;;3.45;;
10343;SDS011;5217;43.960;10.954;2023-04-29T12:10:10;5.20;;;3.03;;
10343;SDS011;5217;43.960;10.954;2023-04-29T12:12:39;4.22;;;3.20;;
10343;SDS011;5217;43.960;10.954;2023-04-29T12:15:09;4.35;;;2.75;;
10343;SDS011;5217;43.960;10.954;2023-04-29T12:17:40;5.70;;;3.00;;
10343;SDS011;5217;43.960;10.954;2023-04-29T12:20:12;4.03;;;2.90;;
10343;SDS011;5217;43.960;10.954;2023-04-29T12:22:41;3.90;;;2.92;;
10343;SDS011;5217;43.960;10.954;2023-04-29T12:25:10;3.92;;;3.03;;
10343;SDS011;5217;43.960;10.954;2023-04-29T12:27:42;4.38;;;2.78;;
10343;SDS011;5217;43.960;10.954;2023-04-29T12:30:11;3.65;;;2.83;;
10343;SDS011;5217;43.960;10.954;2023-04-29T12:32:41;4.63;;;2.80;;
10343;SDS011;5217;43.960;10.954;2023-04-29T12:35:13;4.95;;;2.75;;
10343;SDS011;5217;43.960;10.954;2023-04-29T12:37:46;3.85;;;2.80;;
10343;SDS011;5217;43.960;10.954;2023-04-29T12:40:16;3.42;;;2.80;;
10343;SDS011;5217;43.960;10.954;2023-04-29T12:42:46;2.88;;;2.53;;
10343;SDS011;5217;43.960;10.954;2023-04-29T12:45:24;3.63;;;2.78;;
10343;SDS011;5217;43.960;10.954;2023-04-29T12:47:55;2.92;;;2.50;;
10343;SDS011;5217;43.960;10.954;2023-04-29T12:50:29;4.47;;;2.72;;
10343;SDS011;5217;43.960;10.954;2023-04-29T12:53:00;4.47;;;3.00;;
10343;SDS011;5217;43.960;10.954;2023-04-29T12:55:31;5.47;;;2.85;;
10343;SDS011;5217;43.960;10.954;2023-04-29T12:58:01;4.93;;;3.15;;
10343;SDS011;5217;43.960;10.954;2023-04-29T13:00:30;3.42;;;2.70;;
10343;SDS011;5217;43.960;10.954;2023-04-29T13:03:02;5.10;;;3.10;;
10343;SDS011;5217;43.960;10.954;2023-04-29T13:05:31;4.05;;;2.95;;
10343;SDS011;5217;43.960;10.954;2023-04-29T13:08:00;5.90;;;3.10;;
10343;SDS011;5217;43.960;10.954;2023-04-29T13:10:29;3.38;;;2.63;;
10343;SDS011;5217;43.960;10.954;2023-04-29T13:12:58;4.15;;;3.05;;
10343;SDS011;5217;43.960;10.954;2023-04-29T13:15:29;7.05;;;4.70;;
10343;SDS011;5217;43.960;10.954;2023-04-29T13:17:58;26.67;;;19.65;;
10343;SDS011;5217;43.960;10.954;2023-04-29T13:20:29;28.52;;;21.08;;
10343;SDS011;5217;43.960;10.954;2023-04-29T13:22:58;16.10;;;13.02;;
10343;SDS011;5217;43.960;10.954;2023-04-29T13:25:27;15.00;;;10.32;;
10343;SDS011;5217;43.960;10.954;2023-04-29T13:27:56;11.35;;;7.72;;
10343;SDS011;5217;43.960;10.954;2023-04-29T13:30:24;8.48;;;6.35;;
10343;SDS011;5217;43.960;10.954;2023-04-29T13:32:53;9.13;;;5.32;;
10343;SDS011;5217;43.960;10.954;2023-04-29T13:35:31;7.32;;;4.53;;
10343;SDS011;5217;43.960;10.954;2023-04-29T13:38:01;6.32;;;4.15;;
10343;SDS011;5217;43.960;10.954;2023-04-29T13:40:30;4.63;;;3.60;;
10343;SDS011;5217;43.960;10.954;2023-04-29T13:43:06;6.15;;;3.97;;
10343;SDS011;5217;43.960;10.954;2023-04-29T13:45:38;8.38;;;5.00;;
10343;SDS011;5217;43.960;10.954;2023-04-29T13:48:13;9.98;;;6.30;;
10343;SDS011;5217;43.960;10.954;2023-04-29T13:51:03;7.93;;;5.85;;
10343;SDS011;5217;43.960;10.954;2023-04-29T13:53:36;7.80;;;5.68;;
10343;SDS011;5217;43.960;10.954;2023-04-29T13:56:25;8.73;;;5.53;;
10343;SDS011;5217;43.960;10.954;2023-04-29T13:59:13;7.57;;;6.10;;
10343;SDS011;5217;43.960;10.954;2023-04-29T14:01:45;7.00;;;5.80;;
10343;SDS011;5217;43.960;10.954;2023-04-29T14:04:17;6.72;;;5.35;;
10343;SDS011;5217;43.960;10.954;2023-04-29T14:06:47;7.90;;;5.28;;
10343;SDS011;5217;43.960;10.954;2023-04-29T14:09:16;7.22;;;5.25;;
10343;SDS011;5217;43.960;10.954;2023-04-29T14:11:45;6.97;;;4.20;;
10343;SDS011;5217;43.960;10.954;2023-04-29T14:14:14;5.63;;;3.83;;
10343;SDS011;5217;43.960;10.954;2023-04-29T14:16:42;5.80;;;3.80;;
10343;SDS011;5217;43.960;10.954;2023-04-29T14:19:11;5.93;;;3.80;;
10343;SDS011;5217;43.960;10.954;2023-04-29T14:21:39;5.28;;;3.25;;
10343;SDS011;5217;43.960;10.954;2023-04-29T14:24:09;5.22;;;3.55;;
10343;SDS011;5217;43.960;10.954;2023-04-29T14:26:37;5.22;;;3.38;;
10343;SDS011;5217;43.960;10.954;2023-04-29T14:29:07;5.35;;;3.40;;
10343;SDS011;5217;43.960;10.954;2023-04-29T14:31:35;8.00;;;4.03;;
10343;SDS011;5217;43.960;10.954;2023-04-29T14:34:04;4.90;;;3.50;;
10343;SDS011;5217;43.960;10.954;2023-04-29T14:36:33;5.75;;;3.90;;
10343;SDS011;5217;43.960;10.954;2023-04-29T14:39:02;4.68;;;3.33;;
10343;SDS011;5217;43.960;10.954;2023-04-29T14:41:32;5.18;;;3.70;;
10343;SDS011;5217;43.960;10.954;2023-04-29T14:44:01;7.30;;;3.40;;
10343;SDS011;5217;43.960;10.954;2023-04-29T14:46:30;5.28;;;3.03;;
10343;SDS011;5217;43.960;10.954;2023-04-29T14:48:59;4.78;;;3.30;;
10343;SDS011;5217;43.960;10.954;2023-04-29T14:51:28;4.60;;;3.30;;
10343;SDS011;5217;43.960;10.954;2023-04-29T14:53:58;3.60;;;3.25;;
10343;SDS011;5217;43.960;10.954;2023-04-29T14:56:26;5.43;;;3.63;;
10343;SDS011;5217;43.960;10.954;2023-04-29T14:58:57;3.75;;;3.10;;
10343;SDS011;5217;43.960;10.954;2023-04-29T15:01:26;4.88;;;2.90;;
10343;SDS011;5217;43.960;10.954;2023-04-29T15:03:57;4.35;;;2.97;;
10343;SDS011;5217;43.960;10.954;2023-04-29T15:06:27;4.90;;;3.30;;